메인 페이지
METAR-TAF:

METAR-TAF

공항 :

핼리팩스 스탠필드 국제공항

핼리팩스, 노바스코샤, 캐나다

위도: 44-53N, 경도: 063-30W, 고도: 145m

현재 날씨관측

예보는 22분 전, 22:04시(UTC)에 발표되었습니다.
23kt, 순간 최대 풍속 37kt
온도 9°C
습도 100%
기압 1000 hPa
시정: 0.8km
약한비, 안개

METAR: CYHZ 202204Z 17023G37KT 1/2SM R23/P6000FT/D R14/5000VP6000FT/D -RA FG VV003 09/09 A2953 RMK FG8 SLP006

시각: 18:26 (22:26 UTC)

예보

예보는 1 시간 48분 전, 20:38시(UTC)에 발표되었습니다.
예보 대상 시간: 20일 21시부터 21일 18시까지 (UTC)
남남동20kt, 순간 최대 풍속 30kt
시정: 0.4km
고도 200ft 상공
약한비, 약한이슬비, 안개
일시적
20일 21시부터 21일 01시까지 (UTC)
시정: 3.2km
고도 500ft 상공 흐림
약한비, 박무
전환 중
20일 21시부터 20일 23시까지 (UTC)
30kt, 순간 최대 풍속 40kt
21일 0100시부터 (UTC)
30kt, 순간 최대 풍속 40kt
시정: 3.2km
고도 300ft 상공 구름 많음
고도 500ft 상공 흐림
비, 박무
전환 중
21일 05시부터 21일 07시까지 (UTC)
20kt, 순간 최대 풍속 30kt
21일 0900시부터 (UTC)
18kt, 순간 최대 풍속 38kt
시정: 3.2km
고도 300ft 상공 구름 많음
고도 500ft 상공 흐림
약한비, 약한이슬비, 박무
21일 1500시부터 (UTC)
남서15kt, 순간 최대 풍속 25kt
시정: 10km
고도 1500ft 상공 구름 많음

TAF: CYHZ 202038Z 2021/2118 15020G30KT 1/4SM -RA -DZ FG VV002 TEMPO 2021/2101 2SM -RA BR OVC005 BECMG 2021/2023 17030G40KT FM210100 17030G40KT 2SM RA BR BKN003 OVC005 BECMG 2105/2107 18020G30KT FM210900 19018G38KT 2SM -RA -DZ BR BKN003 OVC005 FM211500 23015G25KT P6SM BKN015 RMK NXT FCST BY 210000Z

4,000개 이상의 공항 관측 자료 및 예보 (METAR 및 TAF 보고).

지도상에서 검색 가능한 기상관측소가 노란 점과 빨간 점으로 표시되어 있습니다.

기상관측소 명을 보려면 표시 위로 마우스를 이동하세요.

날씨 관측과 예보를 보려면 클릭하세요.

지도 변경 : 확대하려면 엑스 표시가 있는 녹색 버튼, 축소하려면 빼기 표시가 있는 녹색 버튼, 다음 페이지의 지도를 보려면 녹색 화살표를 클릭하세요.


METAR-TAF: